André Pereira

Scout - Fluminense
3 Apr 2027
Saturday
Process

Personality

Adaptability (3) Ambition (3) Controversy (12) Loyalty (7) Pressure (14) Professionalism (12) Sportsmanship (7) Temperament (8)

Profile

Coaching Style Democratic
License Continental B
Determination 10
Man Management 5
Motivating 7
Discipline 15
Job Satisfaction
100%
Fatigue
0%
Role Scout
Wage 114.4K p/w
Contract 14.03.2028

Performance

Behaviour Good
Training Effectiveness
43%
Player Development
25%
Injury Prevention
40%
Tactical Implementation
40%

Recent Events

Attended a recruitment meeting now
Recommended a transfer target now
Assessed a player 7d ago
Assessed a player 7d ago
Assessed a player 7d ago
Assessed a player 7d ago
Assessed a player 7d ago
Assessed a player 7d ago

Currently Monitoring

181
Player Club Status Ability Confidence Watched Last Observed Latest Vote
João Palhinha Benfica Active 158 / 148 40% 8 30.03.2027 -
Hwang In-Beom Porto Active 142 / 152 40% 4 30.03.2027 -
Carlos Rodríguez Cruz Azul Active 132 / 145 40% 4 30.03.2027 -
Jonathan Arteaga Veracruz Active 111 / 111 40% 1 30.03.2027 -
Bernardo Lima Porto Active 90 / 104 40% 1 30.03.2027 -
Radek Vítek Middlesbrough Active 144 / 133 40% 7 28.03.2027 -
Adriel Torreense Active 120 / 121 40% 4 28.03.2027 -
Marquinhos Spartak Moscow Active 130 / 129 40% 5 28.03.2027 -
José Paradela Cruz Azul Active 146 / 131 40% 3 28.03.2027 -
Egoitz Arana Real Sociedad Active 105 / 117 40% 3 28.03.2027 -
Diogo Gonçalves Konyaspor Active 125 / 117 40% 1 28.03.2027 -
Louis Leroux FC Nantes Active 122 / 129 40% 3 26.03.2027 -
Martim Fernandes Porto Active 142 / 128 40% 1 26.03.2027 -
Eduardo Felicíssimo Sporting CP Active 105 / 125 40% 1 26.03.2027 -
Cesar Corona Veracruz Active 139 / 130 40% 12 24.03.2027 -
Luis Romo Guadalajara Active 144 / 145 40% 4 24.03.2027 -
Murphy Cooper Plymouth Argyle Active 116 / 121 40% 5 24.03.2027 -
Lukáš Provod Slavia Prague Active 144 / 141 40% 5 24.03.2027 -
Axel Openda KV Oostende Active 138 / 132 40% 4 23.03.2027 -
Haissem Hassan Bloemfontein Celtic Active 129 / 143 40% 5 23.03.2027 -
Brian Rodríguez Club America Active 132 / 135 40% 1 23.03.2027 -
Andrea Colpani Monza Active 133 / 133 40% 2 22.03.2027 -
Sebastián Córdova Pumas UNAM Active 129 / 136 40% 1 22.03.2027 -
Dany Mota Monza Active 141 / 131 40% 2 21.03.2027 -
Rabby Nzingoula West Bromwich Albion Active 117 / 120 40% 2 21.03.2027 -
Luca Orellano Monterrey Active 133 / 125 40% 1 21.03.2027 -
Tiago Freitas Benfica Active 104 / 120 40% 1 21.03.2027 -
Bernardo Fontes Braga Active 122 / 138 40% 5 18.03.2027 -
Gabriel Brazão Santos Active 131 / 129 40% 5 18.03.2027 -
Martim Cunha Porto Active 99 / 104 40% 3 18.03.2027 -
José Pachuca Puebla Active 105 / 106 40% 1 18.03.2027 -
Alejandro Zendejas Club America Active 144 / 133 40% 3 17.03.2027 -
Daniil Frolkin Fakel Active 116 / 118 40% 1 17.03.2027 -
Lorenzo Palmisani Frosinone Active 130 / 122 40% 1 17.03.2027 -
Zach Hemming Chesterfield Active 110 / 107 40% 1 17.03.2027 -
Juan Diego Castillo Vitoria Guimaraes Active 124 / 117 40% 6 13.03.2027 -
Christ Inao Oulaï Fiorentina Active 136 / 131 40% 1 12.03.2027 -
Lennon Miller Udinese Active 127 / 124 40% 1 12.03.2027 -
Antonio Gomis Vizela Active 115 / 131 40% 7 11.03.2027 -
Edoardo Corvi Parma Active 135 / 135 40% 1 11.03.2027 -
Soufiane Rahimi Al Ain Active 143 / 124 40% 2 10.03.2027 -
Daniel Banjaqui Benfica Active 105 / 111 40% 2 08.03.2027 -
Thorgan Nainggolan Mouscron Active 101 / 123 40% 1 08.03.2027 -
James Dornelly Peterborough United Active 98 / 110 40% 1 08.03.2027 -
Daniel Bragança Sporting CP Active 145 / 144 40% 1 08.03.2027 -
Orbelín Pineda Monterrey Active 142 / 134 40% 2 07.03.2027 -
Jordan Amissah Burton Albion Active 103 / 111 40% 1 06.03.2027 -
Vinícius Lira Santos Active 119 / 117 40% 1 04.03.2027 -
Leandro Martins Benfica Active 90 / 95 40% 1 04.03.2027 -
Bertrand Traoré Sunderland Active 127 / 140 40% 1 03.03.2027 -
Alpha Touré FC Metz Active 106 / 115 40% 1 02.03.2027 -
Efraín Álvarez Guadalajara Active 128 / 121 40% 3 01.03.2027 -
Chiquinho Alverca Active 134 / 133 40% 2 01.03.2027 -
Leandro Andrade Polissia Active 130 / 131 40% 2 27.02.2027 -
Theo Bongonda Al-Faisaly Active 134 / 133 40% 1 27.02.2027 -
George Wickens Lincoln City Active 124 / 120 40% 4 26.02.2027 -
Taye Ashby-Hammond Walsall Active 104 / 117 40% 1 26.02.2027 -
Elia Caprile Cagliari Active 153 / 157 40% 1 26.02.2027 -
Michy Fellaini KV Oostende Active 133 / 131 40% 7 20.02.2027 -
Renan Lodi Atlético Mineiro Active 136 / 144 40% 7 20.02.2027 -
Iñaki Peña Panathinaikos Active 140 / 147 40% 2 18.02.2027 -
Nathan Bishop AFC Wimbledon Active 106 / 113 40% 2 18.02.2027 -
Vitor Hugo Lusitânia Lourosa Active 98 / 105 40% 2 16.02.2027 -
Beau Reus Waasland-Beveren Active 126 / 117 40% 1 16.02.2027 -
Mandla Jali SuperSport United Active 119 / 126 40% 3 15.02.2027 -
Pol Tristán Bradford City Active 111 / 122 40% 1 15.02.2027 -
João Carvalho Estoril Praia Active 125 / 136 40% 3 14.02.2027 -
Michael Cooper Sheffield United Active 128 / 136 40% 3 12.02.2027 -
Carl Rushworth Coventry City Active 135 / 139 40% 2 12.02.2027 -
Matthieu Epolo Standard Liege Active 120 / 125 40% 1 12.02.2027 -
João Valido Chaves Active 116 / 116 40% 2 11.02.2027 -
Jesús Ricardo Angulo Toluca Active 137 / 128 40% 3 10.02.2027 -
Matheus Pereira Cruzeiro Active 141 / 135 40% 1 10.02.2027 -
Sam Tickle Wigan Athletic Active 125 / 116 40% 4 07.02.2027 -
Patrick Sequeira Casa Pia Active 119 / 120 40% 4 07.02.2027 -
Petar Stanić Ludogorets Active 136 / 123 40% 1 06.02.2027 -
Killian Cahill Leyton Orient Active 110 / 93 40% 1 05.02.2027 -
Jakub Stolarczyk Leicester City Active 135 / 133 40% 2 03.02.2027 -
Myles Roberts Doncaster Rovers Active 100 / 95 40% 1 03.02.2027 -
Sławomir Abramowicz Jagiellonia Active 116 / 114 40% 1 03.02.2027 -
Alfonso Pastor Maritimo Active 115 / 109 40% 6 02.02.2027 -
Ruslan Neshcheret Dynamo Kyiv Active 116 / 109 40% 1 02.02.2027 -
Andreas Pereira Palmeiras Active 145 / 145 40% 1 28.01.2027 -
Gianluca Prestianni Benfica Active 140 / 144 40% 1 24.01.2027 -
Evidence Billiat Ajax Cape Town Active 111 / 106 40% 1 22.01.2027 -
Jamie Cumming Oxford United Active 124 / 132 40% 1 22.01.2027 -
Pablo Rosario Porto Active 137 / 150 40% 2 21.01.2027 -
Marcelo Allende Mamelodi Sundowns Active 129 / 138 40% 1 21.01.2027 -
Christian Joel Sánchez Leiria Active 118 / 115 40% 3 20.01.2027 -
Anthony Patterson Wrexham Active 128 / 135 40% 4 20.01.2027 -
Hugo Souza Corinthians Active 145 / 136 40% 2 19.01.2027 -
Santi García Gil Vicente Active 125 / 138 40% 3 17.01.2027 -
Nemanja Radonjić Crvena Zvezda Active 138 / 140 40% 1 17.01.2027 -
Enzo Díaz Sport Recife Active 134 / 139 40% 2 09.01.2027 -
Francis Amuzu Grêmio Active 137 / 138 40% 1 07.01.2027 -
Yehvann Diouf OGC Nice Active 148 / 138 40% 1 02.01.2027 -
Will Dennis Milton Keynes Dons Active 100 / 91 40% 2 29.12.2026 -
Dmytro Riznyk Shakhtar Active 138 / 134 40% 1 25.12.2026 -
Matheus Mendes Alverca Active 111 / 129 40% 2 23.12.2026 -
Paulo Henrique Vasco da Gama Active 138 / 130 40% 4 18.12.2026 -
Nuno Santos Sporting CP Active 138 / 148 40% 1 16.12.2026 -
Bruno Brígido America Mineiro Active 107 / 115 76% 1 14.12.2026 Approve
Marcel Ruiz Toluca Active 140 / 135 40% 1 14.12.2026 -
Ademir Bahia Rejected 124 / 117 76% 1 01.12.2026 -
Sem Westerveld Zaragoza Active 117 / 108 40% 1 29.11.2026 -
Marcos Antonio Sport Recife Active 135 / 130 40% 3 27.11.2026 -
Ismaël Bennacer Palmeiras Active 152 / 145 40% 1 27.11.2026 -
Vitor Carvalho Braga Active 137 / 144 40% 5 25.11.2026 -
Erik Lira Cruz Azul Active 133 / 127 40% 1 25.11.2026 -
Danilo Botafogo Active 141 / 142 40% 1 25.11.2026 -
William Cruzeiro Active 132 / 125 40% 4 24.11.2026 -
Gustaf Lagerbielke Braga Active 137 / 135 40% 3 24.11.2026 -
Kenny Tete Fulham Rejected 141 / 153 40% 3 24.11.2026 Reject
Martín Tejón Maritimo Active 112 / 126 40% 2 23.11.2026 -
Vinícius Lopes Santa Clara Active 115 / 126 40% 3 22.11.2026 -
Jon Karrikaburu Burgos Active 124 / 120 40% 2 22.11.2026 -
Igor Nikić Mirandés Active 125 / 121 40% 1 21.11.2026 -
Jan Bednarek Porto Active 148 / 158 40% 3 15.11.2026 -
Zé Leite Oliveirense Active 120 / 120 40% 3 13.11.2026 -
Camilo Durán Bloemfontein Celtic Active 118 / 104 40% 3 13.11.2026 -
Nicolò Tresoldi Club Brugge Active 133 / 133 40% 1 13.11.2026 -
Sorriso Famalicao Active 127 / 132 40% 3 12.11.2026 -
Mésaque Djú Portimonense Active 109 / 106 40% 1 12.11.2026 -
Jalen Blesa Rio Ave Active 124 / 103 40% 2 11.11.2026 -
Leonardo Lelo Braga Active 139 / 133 40% 1 10.11.2026 -
Sikou Niakaté Braga Active 129 / 135 40% 3 09.11.2026 -
Lazar Carević Famalicao Active 122 / 134 40% 2 09.11.2026 -
Sergi Altimira Sporting CP Active 142 / 141 40% 3 09.11.2026 -
Tamble Monteiro Rio Ave Active 123 / 133 40% 4 07.11.2026 -
Giorgos Koutsias Famalicao Active 121 / 123 40% 1 07.11.2026 -
Rubén Duarte Pumas UNAM Active 135 / 126 40% 3 04.11.2026 -
Matthew Targett Hull City Active 128 / 135 40% 1 04.11.2026 -
Alfonso Trezza Arouca Active 129 / 134 40% 4 03.11.2026 -
Pablo Ramón Racing Club Active 130 / 126 40% 2 02.11.2026 -
Bright Arrey-Mbi Braga Active 127 / 128 40% 1 02.11.2026 -
Gustavo Silva Vitoria Guimaraes Active 126 / 124 40% 1 01.11.2026 -
Vitinho Botafogo Active 138 / 130 40% 2 31.10.2026 -
Felipe Parra Envigado Active 121 / 122 40% 1 31.10.2026 -
Gabriel Barbosa Farense Active 113 / 94 40% 2 30.10.2026 -
Henrique Araújo Casa Pia Active 127 / 119 40% 2 27.10.2026 -
Óscar Aranda Espanyol Active 120 / 127 40% 1 27.10.2026 -
Ignacio Russo Tigre Active 121 / 134 40% 1 27.10.2026 -
Lucas Veríssimo Santos Active 133 / 141 40% 1 26.10.2026 -
Percy Erasmus SuperSport United Active 123 / 134 40% 3 24.10.2026 -
Figueiredo Alverca Active 129 / 134 40% 3 22.10.2026 -
Lucas Duarte Felgueiras Active 99 / 101 40% 2 20.10.2026 -
Ángelo Preciado Atlético Mineiro Active 134 / 126 40% 1 19.10.2026 -
Fabrício Bruno Cruzeiro Active 142 / 134 40% 3 18.10.2026 -
Javi Sánchez Arouca Active 128 / 130 40% 1 17.10.2026 -
Victor Araujo Veracruz Active 145 / 143 40% 2 14.10.2026 -
Iván Martín Racing Club Active 142 / 145 40% 1 12.10.2026 -
Richard Ledezma Guadalajara Active 135 / 129 40% 1 10.10.2026 -
Luis Ingolotti Atlético Tucumán Active 118 / 129 40% 1 07.10.2026 -
Eduardo Quaresma Sporting CP Active 147 / 131 40% 1 06.10.2026 -
Isidro Pitta Bragantino Active 133 / 129 40% 1 05.10.2026 -
Nathan Trott Cardiff City Active 112 / 115 40% 1 04.10.2026 -
Manuel Baldé Wadi Degla Active 100 / 98 40% 1 30.09.2026 -
Nicolás Sumavil Platense Active 123 / 116 40% 1 30.09.2026 -
Lucas Cañizares Tondela Active 99 / 121 40% 1 30.09.2026 -
Matheus Henrique Cruzeiro Active 132 / 125 40% 1 29.09.2026 -
Zeno Debast Sporting CP Active 137 / 131 40% 1 29.09.2026 -
Luciano Juba Bahia Active 129 / 130 40% 2 28.09.2026 -
Luan Santos Imotski Active 92 / 78 40% 1 26.09.2026 -
Cheikh Sabaly Vancouver Whitecaps Active 129 / 125 40% 1 24.09.2026 -
Dominik Steczyk Académico de Viseu Active 97 / 99 40% 1 24.09.2026 -
Bryan Limbombe Maritimo Active 111 / 99 40% 1 23.09.2026 -
Korede Osundina Casa Pia Active 112 / 109 40% 1 21.09.2026 -
Dylan Nandín Arouca Active 110 / 102 40% 1 19.09.2026 -
Cezary Miszta Rio Ave Active 123 / 133 40% 2 15.09.2026 -
Lucão Gil Vicente Active 119 / 109 40% 1 15.09.2026 -
Richard Ríos Benfica Active 145 / 153 40% 2 12.09.2026 -
Joaquín Piquerez Palmeiras Active 136 / 132 40% 1 12.09.2026 -
Alberto Costa Porto Active 141 / 130 40% 1 11.09.2026 -
Mauro Arambarri River Plate Active 152 / 159 40% 1 08.09.2026 -
Nicolás Fernández Mercau New York City Active 136 / 134 40% 1 08.09.2026 -
Negueba Mirassol Active 118 / 133 40% 1 07.09.2026 -
Nehuén Pérez Porto Active 134 / 130 40% 2 06.09.2026 -
Iván Fresneda Sporting CP Active 132 / 155 40% 1 02.09.2026 -
Gonçalo Oliveira Benfica Active 110 / 98 40% 1 02.08.2026 -
José Sampaio Vizela Active 112 / 110 40% 1 01.08.2026 -
Josh Wynder Benfica Active 103 / 101 40% 1 01.08.2026 -